sensor_id;sensor_type;location;lat;lon;timestamp;P1;durP1;ratioP1;P2;durP2;ratioP2
58340;SDS011;44149;43.060;0.104;2023-02-26T00:02:13;133.77;;;30.35;;
58340;SDS011;44149;43.060;0.104;2023-02-26T00:04:40;81.97;;;21.98;;
58340;SDS011;44149;43.060;0.104;2023-02-26T00:07:06;19.70;;;7.82;;
58340;SDS011;44149;43.060;0.104;2023-02-26T00:09:33;3.38;;;1.23;;
58340;SDS011;44149;43.060;0.104;2023-02-26T00:12:00;0.82;;;0.82;;
58340;SDS011;44149;43.060;0.104;2023-02-26T00:14:26;0.60;;;0.60;;
58340;SDS011;44149;43.060;0.104;2023-02-26T00:17:04;0.50;;;0.50;;
58340;SDS011;44149;43.060;0.104;2023-02-26T00:19:32;0.50;;;0.50;;
58340;SDS011;44149;43.060;0.104;2023-02-26T00:21:58;0.50;;;0.50;;
58340;SDS011;44149;43.060;0.104;2023-02-26T00:24:25;0.73;;;0.73;;
58340;SDS011;44149;43.060;0.104;2023-02-26T00:26:51;0.32;;;0.32;;
58340;SDS011;44149;43.060;0.104;2023-02-26T00:29:17;0.60;;;0.60;;
58340;SDS011;44149;43.060;0.104;2023-02-26T00:31:44;0.70;;;0.70;;
58340;SDS011;44149;43.060;0.104;2023-02-26T00:34:11;0.50;;;0.50;;
58340;SDS011;44149;43.060;0.104;2023-02-26T00:36:47;0.50;;;0.50;;
58340;SDS011;44149;43.060;0.104;2023-02-26T00:41:46;0.57;;;0.57;;
58340;SDS011;44149;43.060;0.104;2023-02-26T00:44:12;1.17;;;0.95;;
58340;SDS011;44149;43.060;0.104;2023-02-26T00:46:47;1.05;;;0.88;;
58340;SDS011;44149;43.060;0.104;2023-02-26T00:49:34;3.22;;;0.75;;
58340;SDS011;44149;43.060;0.104;2023-02-26T00:52:10;1.65;;;0.77;;
58340;SDS011;44149;43.060;0.104;2023-02-26T00:54:38;0.90;;;0.70;;
58340;SDS011;44149;43.060;0.104;2023-02-26T00:57:05;4.32;;;1.08;;
58340;SDS011;44149;43.060;0.104;2023-02-26T00:59:31;0.60;;;0.60;;
58340;SDS011;44149;43.060;0.104;2023-02-26T01:01:57;0.98;;;0.98;;
58340;SDS011;44149;43.060;0.104;2023-02-26T01:04:23;2.05;;;0.85;;
58340;SDS011;44149;43.060;0.104;2023-02-26T01:06:52;0.80;;;0.70;;
58340;SDS011;44149;43.060;0.104;2023-02-26T01:09:25;2.83;;;0.90;;
58340;SDS011;44149;43.060;0.104;2023-02-26T01:11:53;0.55;;;0.55;;
58340;SDS011;44149;43.060;0.104;2023-02-26T01:14:20;0.85;;;0.60;;
58340;SDS011;44149;43.060;0.104;2023-02-26T01:22:20;1.75;;;1.05;;
58340;SDS011;44149;43.060;0.104;2023-02-26T01:24:48;1.00;;;0.77;;
58340;SDS011;44149;43.060;0.104;2023-02-26T01:27:16;0.45;;;0.45;;
58340;SDS011;44149;43.060;0.104;2023-02-26T01:29:42;0.77;;;0.73;;
58340;SDS011;44149;43.060;0.104;2023-02-26T01:32:18;1.13;;;0.70;;
58340;SDS011;44149;43.060;0.104;2023-02-26T01:34:53;1.45;;;1.02;;
58340;SDS011;44149;43.060;0.104;2023-02-26T01:37:21;1.95;;;0.47;;
58340;SDS011;44149;43.060;0.104;2023-02-26T01:42:32;0.75;;;0.75;;
58340;SDS011;44149;43.060;0.104;2023-02-26T01:45:20;2.15;;;0.95;;
58340;SDS011;44149;43.060;0.104;2023-02-26T01:47:53;0.60;;;0.57;;
58340;SDS011;44149;43.060;0.104;2023-02-26T01:50:22;7.22;;;0.80;;
58340;SDS011;44149;43.060;0.104;2023-02-26T01:55:26;0.50;;;0.50;;
58340;SDS011;44149;43.060;0.104;2023-02-26T01:57:53;0.95;;;0.95;;
58340;SDS011;44149;43.060;0.104;2023-02-26T02:00:20;1.17;;;1.08;;
58340;SDS011;44149;43.060;0.104;2023-02-26T02:02:47;0.80;;;0.68;;
58340;SDS011;44149;43.060;0.104;2023-02-26T02:05:17;0.43;;;0.43;;
58340;SDS011;44149;43.060;0.104;2023-02-26T02:07:46;1.67;;;0.50;;
58340;SDS011;44149;43.060;0.104;2023-02-26T02:10:12;2.80;;;0.60;;
58340;SDS011;44149;43.060;0.104;2023-02-26T02:12:40;1.02;;;0.85;;
58340;SDS011;44149;43.060;0.104;2023-02-26T02:15:12;0.50;;;0.50;;
58340;SDS011;44149;43.060;0.104;2023-02-26T02:23:04;0.47;;;0.47;;
58340;SDS011;44149;43.060;0.104;2023-02-26T02:33:54;1.00;;;0.57;;
58340;SDS011;44149;43.060;0.104;2023-02-26T02:40:07;0.30;;;0.30;;
58340;SDS011;44149;43.060;0.104;2023-02-26T02:44:31;0.40;;;0.40;;
58340;SDS011;44149;43.060;0.104;2023-02-26T02:47:00;0.60;;;0.60;;
58340;SDS011;44149;43.060;0.104;2023-02-26T02:49:28;0.65;;;0.40;;
58340;SDS011;44149;43.060;0.104;2023-02-26T02:52:00;0.75;;;0.75;;
58340;SDS011;44149;43.060;0.104;2023-02-26T02:54:30;3.50;;;0.80;;
58340;SDS011;44149;43.060;0.104;2023-02-26T02:57:03;2.08;;;0.57;;
58340;SDS011;44149;43.060;0.104;2023-02-26T02:59:36;0.90;;;0.90;;
58340;SDS011;44149;43.060;0.104;2023-02-26T03:02:09;0.60;;;0.60;;
58340;SDS011;44149;43.060;0.104;2023-02-26T03:04:36;1.00;;;0.80;;
58340;SDS011;44149;43.060;0.104;2023-02-26T03:07:02;1.50;;;0.95;;
58340;SDS011;44149;43.060;0.104;2023-02-26T03:09:29;0.70;;;0.70;;
58340;SDS011;44149;43.060;0.104;2023-02-26T03:11:55;1.05;;;1.00;;
58340;SDS011;44149;43.060;0.104;2023-02-26T03:14:21;0.93;;;0.93;;
58340;SDS011;44149;43.060;0.104;2023-02-26T03:24:27;0.43;;;0.43;;
58340;SDS011;44149;43.060;0.104;2023-02-26T03:26:59;0.50;;;0.50;;
58340;SDS011;44149;43.060;0.104;2023-02-26T03:29:32;0.68;;;0.60;;
58340;SDS011;44149;43.060;0.104;2023-02-26T03:32:02;0.40;;;0.40;;
58340;SDS011;44149;43.060;0.104;2023-02-26T03:34:38;0.30;;;0.30;;
58340;SDS011;44149;43.060;0.104;2023-02-26T03:37:07;2.40;;;0.57;;
58340;SDS011;44149;43.060;0.104;2023-02-26T03:39:37;1.35;;;0.73;;
58340;SDS011;44149;43.060;0.104;2023-02-26T03:44:36;0.50;;;0.50;;
58340;SDS011;44149;43.060;0.104;2023-02-26T03:47:07;0.95;;;0.93;;
58340;SDS011;44149;43.060;0.104;2023-02-26T03:49:36;0.88;;;0.88;;
58340;SDS011;44149;43.060;0.104;2023-02-26T03:52:03;1.13;;;1.02;;
58340;SDS011;44149;43.060;0.104;2023-02-26T03:54:31;1.05;;;0.70;;
58340;SDS011;44149;43.060;0.104;2023-02-26T03:56:57;0.40;;;0.40;;
58340;SDS011;44149;43.060;0.104;2023-02-26T03:59:24;0.75;;;0.50;;
58340;SDS011;44149;43.060;0.104;2023-02-26T04:01:53;0.70;;;0.70;;
58340;SDS011;44149;43.060;0.104;2023-02-26T04:05:05;1.15;;;0.90;;
58340;SDS011;44149;43.060;0.104;2023-02-26T04:07:11;1.55;;;0.40;;
58340;SDS011;44149;43.060;0.104;2023-02-26T04:09:41;0.57;;;0.57;;
58340;SDS011;44149;43.060;0.104;2023-02-26T04:12:08;0.40;;;0.40;;
58340;SDS011;44149;43.060;0.104;2023-02-26T04:14:34;0.40;;;0.40;;
58340;SDS011;44149;43.060;0.104;2023-02-26T04:17:00;0.45;;;0.45;;
58340;SDS011;44149;43.060;0.104;2023-02-26T04:19:26;0.40;;;0.40;;
58340;SDS011;44149;43.060;0.104;2023-02-26T04:21:53;1.15;;;0.52;;
58340;SDS011;44149;43.060;0.104;2023-02-26T04:24:19;0.95;;;0.57;;
58340;SDS011;44149;43.060;0.104;2023-02-26T04:26:45;0.88;;;0.50;;
58340;SDS011;44149;43.060;0.104;2023-02-26T04:29:11;0.47;;;0.47;;
58340;SDS011;44149;43.060;0.104;2023-02-26T04:31:38;0.47;;;0.47;;
58340;SDS011;44149;43.060;0.104;2023-02-26T04:34:04;0.40;;;0.40;;
58340;SDS011;44149;43.060;0.104;2023-02-26T04:36:30;0.60;;;0.60;;
58340;SDS011;44149;43.060;0.104;2023-02-26T04:38:56;3.17;;;0.60;;
58340;SDS011;44149;43.060;0.104;2023-02-26T04:41:23;2.47;;;0.80;;
58340;SDS011;44149;43.060;0.104;2023-02-26T04:43:49;0.57;;;0.57;;
58340;SDS011;44149;43.060;0.104;2023-02-26T04:46:15;1.48;;;1.23;;
58340;SDS011;44149;43.060;0.104;2023-02-26T04:48:41;0.30;;;0.30;;
58340;SDS011;44149;43.060;0.104;2023-02-26T04:51:07;0.38;;;0.38;;
58340;SDS011;44149;43.060;0.104;2023-02-26T04:53:34;0.30;;;0.30;;
58340;SDS011;44149;43.060;0.104;2023-02-26T04:56:00;0.82;;;0.82;;
58340;SDS011;44149;43.060;0.104;2023-02-26T04:58:26;4.93;;;0.40;;
58340;SDS011;44149;43.060;0.104;2023-02-26T05:00:52;1.45;;;0.45;;
58340;SDS011;44149;43.060;0.104;2023-02-26T05:03:20;0.35;;;0.35;;
58340;SDS011;44149;43.060;0.104;2023-02-26T05:05:46;0.28;;;0.28;;
58340;SDS011;44149;43.060;0.104;2023-02-26T05:08:12;0.52;;;0.50;;
58340;SDS011;44149;43.060;0.104;2023-02-26T05:10:39;0.43;;;0.43;;
58340;SDS011;44149;43.060;0.104;2023-02-26T05:13:05;0.80;;;0.50;;
58340;SDS011;44149;43.060;0.104;2023-02-26T05:15:31;0.98;;;0.60;;
58340;SDS011;44149;43.060;0.104;2023-02-26T05:17:57;0.38;;;0.38;;
58340;SDS011;44149;43.060;0.104;2023-02-26T05:20:24;0.40;;;0.40;;
58340;SDS011;44149;43.060;0.104;2023-02-26T05:22:50;0.65;;;0.57;;
58340;SDS011;44149;43.060;0.104;2023-02-26T05:25:16;0.57;;;0.40;;
58340;SDS011;44149;43.060;0.104;2023-02-26T05:27:42;0.20;;;0.20;;
58340;SDS011;44149;43.060;0.104;2023-02-26T05:30:09;1.15;;;0.60;;
58340;SDS011;44149;43.060;0.104;2023-02-26T05:32:36;1.08;;;0.77;;
58340;SDS011;44149;43.060;0.104;2023-02-26T05:35:02;1.38;;;0.90;;
58340;SDS011;44149;43.060;0.104;2023-02-26T05:37:29;2.20;;;0.80;;
58340;SDS011;44149;43.060;0.104;2023-02-26T05:39:55;0.45;;;0.45;;
58340;SDS011;44149;43.060;0.104;2023-02-26T05:42:21;0.63;;;0.63;;
58340;SDS011;44149;43.060;0.104;2023-02-26T05:44:47;0.30;;;0.30;;
58340;SDS011;44149;43.060;0.104;2023-02-26T05:47:14;0.75;;;0.70;;
58340;SDS011;44149;43.060;0.104;2023-02-26T05:49:40;0.60;;;0.60;;
58340;SDS011;44149;43.060;0.104;2023-02-26T05:52:06;0.30;;;0.30;;
58340;SDS011;44149;43.060;0.104;2023-02-26T05:54:32;0.32;;;0.32;;
58340;SDS011;44149;43.060;0.104;2023-02-26T05:56:58;1.50;;;0.90;;
58340;SDS011;44149;43.060;0.104;2023-02-26T05:59:25;0.45;;;0.45;;
58340;SDS011;44149;43.060;0.104;2023-02-26T06:01:51;0.75;;;0.75;;
58340;SDS011;44149;43.060;0.104;2023-02-26T06:04:17;1.10;;;0.63;;
58340;SDS011;44149;43.060;0.104;2023-02-26T06:06:43;3.30;;;0.88;;
58340;SDS011;44149;43.060;0.104;2023-02-26T06:09:10;1.73;;;0.55;;
58340;SDS011;44149;43.060;0.104;2023-02-26T06:11:36;0.98;;;0.90;;
58340;SDS011;44149;43.060;0.104;2023-02-26T06:14:03;3.05;;;0.70;;
58340;SDS011;44149;43.060;0.104;2023-02-26T06:16:30;0.77;;;0.77;;
58340;SDS011;44149;43.060;0.104;2023-02-26T06:18:56;1.10;;;0.85;;
58340;SDS011;44149;43.060;0.104;2023-02-26T06:21:23;7.45;;;3.30;;
58340;SDS011;44149;43.060;0.104;2023-02-26T06:23:49;2.67;;;1.38;;
58340;SDS011;44149;43.060;0.104;2023-02-26T06:26:15;0.45;;;0.45;;
58340;SDS011;44149;43.060;0.104;2023-02-26T06:28:41;7.95;;;2.75;;
58340;SDS011;44149;43.060;0.104;2023-02-26T06:31:08;0.77;;;0.65;;
58340;SDS011;44149;43.060;0.104;2023-02-26T06:33:34;2.13;;;1.00;;
58340;SDS011;44149;43.060;0.104;2023-02-26T06:36:00;32.35;;;6.40;;
58340;SDS011;44149;43.060;0.104;2023-02-26T06:38:26;4.63;;;1.88;;
58340;SDS011;44149;43.060;0.104;2023-02-26T06:40:53;1.42;;;1.20;;
58340;SDS011;44149;43.060;0.104;2023-02-26T06:43:19;14.05;;;3.47;;
58340;SDS011;44149;43.060;0.104;2023-02-26T06:45:45;1.38;;;1.08;;
58340;SDS011;44149;43.060;0.104;2023-02-26T06:48:12;1.95;;;1.13;;
58340;SDS011;44149;43.060;0.104;2023-02-26T06:50:38;0.63;;;0.50;;
58340;SDS011;44149;43.060;0.104;2023-02-26T06:53:04;2.17;;;1.13;;
58340;SDS011;44149;43.060;0.104;2023-02-26T06:55:30;0.65;;;0.60;;
58340;SDS011;44149;43.060;0.104;2023-02-26T06:57:57;1.15;;;1.05;;
58340;SDS011;44149;43.060;0.104;2023-02-26T07:00:23;3.30;;;1.20;;
58340;SDS011;44149;43.060;0.104;2023-02-26T07:02:50;19.27;;;3.95;;
58340;SDS011;44149;43.060;0.104;2023-02-26T07:05:16;2.72;;;1.58;;
58340;SDS011;44149;43.060;0.104;2023-02-26T07:07:42;4.05;;;1.40;;
58340;SDS011;44149;43.060;0.104;2023-02-26T07:10:09;2.75;;;1.38;;
58340;SDS011;44149;43.060;0.104;2023-02-26T07:12:36;2.38;;;1.17;;
58340;SDS011;44149;43.060;0.104;2023-02-26T07:15:05;2.22;;;1.38;;
58340;SDS011;44149;43.060;0.104;2023-02-26T07:17:31;0.70;;;0.60;;
58340;SDS011;44149;43.060;0.104;2023-02-26T07:19:58;19.92;;;5.32;;
58340;SDS011;44149;43.060;0.104;2023-02-26T07:22:30;1.83;;;0.65;;
58340;SDS011;44149;43.060;0.104;2023-02-26T07:24:56;6.88;;;2.47;;
58340;SDS011;44149;43.060;0.104;2023-02-26T07:27:24;4.57;;;1.52;;
58340;SDS011;44149;43.060;0.104;2023-02-26T07:29:50;12.52;;;2.63;;
58340;SDS011;44149;43.060;0.104;2023-02-26T07:32:16;1.15;;;0.73;;
58340;SDS011;44149;43.060;0.104;2023-02-26T07:34:43;0.55;;;0.55;;
58340;SDS011;44149;43.060;0.104;2023-02-26T07:37:09;0.77;;;0.77;;
58340;SDS011;44149;43.060;0.104;2023-02-26T07:39:35;0.50;;;0.50;;
58340;SDS011;44149;43.060;0.104;2023-02-26T07:42:01;3.45;;;2.03;;
58340;SDS011;44149;43.060;0.104;2023-02-26T07:44:27;0.88;;;0.85;;
58340;SDS011;44149;43.060;0.104;2023-02-26T07:46:54;1.13;;;1.02;;
58340;SDS011;44149;43.060;0.104;2023-02-26T07:49:20;1.55;;;1.20;;
58340;SDS011;44149;43.060;0.104;2023-02-26T07:51:46;6.22;;;1.95;;
58340;SDS011;44149;43.060;0.104;2023-02-26T07:54:13;3.42;;;0.95;;
58340;SDS011;44149;43.060;0.104;2023-02-26T07:56:40;0.82;;;0.57;;
58340;SDS011;44149;43.060;0.104;2023-02-26T07:59:07;1.40;;;1.40;;
58340;SDS011;44149;43.060;0.104;2023-02-26T08:01:33;5.32;;;2.60;;
58340;SDS011;44149;43.060;0.104;2023-02-26T08:04:00;4.38;;;1.45;;
58340;SDS011;44149;43.060;0.104;2023-02-26T08:06:26;1.45;;;1.17;;
58340;SDS011;44149;43.060;0.104;2023-02-26T08:08:53;3.20;;;1.52;;
58340;SDS011;44149;43.060;0.104;2023-02-26T08:11:19;6.95;;;2.55;;
58340;SDS011;44149;43.060;0.104;2023-02-26T08:13:45;0.80;;;0.80;;
58340;SDS011;44149;43.060;0.104;2023-02-26T08:16:11;0.93;;;0.75;;
58340;SDS011;44149;43.060;0.104;2023-02-26T08:18:38;0.65;;;0.65;;
58340;SDS011;44149;43.060;0.104;2023-02-26T08:21:04;0.93;;;0.93;;
58340;SDS011;44149;43.060;0.104;2023-02-26T08:23:30;1.10;;;1.10;;
58340;SDS011;44149;43.060;0.104;2023-02-26T08:26:00;1.33;;;1.02;;
58340;SDS011;44149;43.060;0.104;2023-02-26T08:28:26;0.80;;;0.80;;
58340;SDS011;44149;43.060;0.104;2023-02-26T08:30:53;0.70;;;0.70;;
58340;SDS011;44149;43.060;0.104;2023-02-26T08:33:19;3.00;;;0.60;;
58340;SDS011;44149;43.060;0.104;2023-02-26T08:35:45;1.15;;;0.73;;
58340;SDS011;44149;43.060;0.104;2023-02-26T08:38:12;0.75;;;0.73;;
58340;SDS011;44149;43.060;0.104;2023-02-26T08:40:38;1.63;;;0.90;;
58340;SDS011;44149;43.060;0.104;2023-02-26T08:43:04;1.48;;;1.23;;
58340;SDS011;44149;43.060;0.104;2023-02-26T08:45:30;1.65;;;0.82;;
58340;SDS011;44149;43.060;0.104;2023-02-26T08:47:56;0.70;;;0.65;;
58340;SDS011;44149;43.060;0.104;2023-02-26T08:50:23;0.40;;;0.40;;
58340;SDS011;44149;43.060;0.104;2023-02-26T08:52:49;3.50;;;1.08;;
58340;SDS011;44149;43.060;0.104;2023-02-26T08:55:16;1.63;;;1.52;;
58340;SDS011;44149;43.060;0.104;2023-02-26T08:57:42;1.17;;;0.93;;
58340;SDS011;44149;43.060;0.104;2023-02-26T09:00:08;0.82;;;0.63;;
58340;SDS011;44149;43.060;0.104;2023-02-26T09:02:35;0.55;;;0.55;;
58340;SDS011;44149;43.060;0.104;2023-02-26T09:05:02;0.68;;;0.68;;
58340;SDS011;44149;43.060;0.104;2023-02-26T09:07:28;2.70;;;0.90;;
58340;SDS011;44149;43.060;0.104;2023-02-26T09:09:54;1.23;;;1.13;;
58340;SDS011;44149;43.060;0.104;2023-02-26T09:12:20;1.73;;;0.90;;
58340;SDS011;44149;43.060;0.104;2023-02-26T09:14:47;0.50;;;0.50;;
58340;SDS011;44149;43.060;0.104;2023-02-26T09:17:13;0.93;;;0.73;;
58340;SDS011;44149;43.060;0.104;2023-02-26T09:19:39;3.40;;;1.45;;
58340;SDS011;44149;43.060;0.104;2023-02-26T09:22:05;5.07;;;1.17;;
58340;SDS011;44149;43.060;0.104;2023-02-26T09:24:32;1.35;;;0.63;;
58340;SDS011;44149;43.060;0.104;2023-02-26T09:26:58;1.05;;;0.80;;
58340;SDS011;44149;43.060;0.104;2023-02-26T09:29:25;1.77;;;0.73;;
58340;SDS011;44149;43.060;0.104;2023-02-26T09:31:51;1.75;;;1.50;;
58340;SDS011;44149;43.060;0.104;2023-02-26T09:34:17;3.13;;;1.30;;
58340;SDS011;44149;43.060;0.104;2023-02-26T09:36:44;2.15;;;1.17;;
58340;SDS011;44149;43.060;0.104;2023-02-26T09:39:11;0.32;;;0.32;;
58340;SDS011;44149;43.060;0.104;2023-02-26T09:41:38;3.45;;;1.35;;
58340;SDS011;44149;43.060;0.104;2023-02-26T09:44:12;1.38;;;1.27;;
58340;SDS011;44149;43.060;0.104;2023-02-26T09:49:34;1.50;;;1.05;;
58340;SDS011;44149;43.060;0.104;2023-02-26T09:52:05;1.33;;;0.80;;
58340;SDS011;44149;43.060;0.104;2023-02-26T09:54:39;0.70;;;0.70;;
58340;SDS011;44149;43.060;0.104;2023-02-26T09:57:08;5.25;;;1.30;;
58340;SDS011;44149;43.060;0.104;2023-02-26T09:59:36;2.17;;;0.98;;
58340;SDS011;44149;43.060;0.104;2023-02-26T10:04:40;0.82;;;0.75;;
58340;SDS011;44149;43.060;0.104;2023-02-26T10:07:15;3.08;;;1.48;;
58340;SDS011;44149;43.060;0.104;2023-02-26T10:09:50;0.70;;;0.65;;
58340;SDS011;44149;43.060;0.104;2023-02-26T10:12:20;0.88;;;0.77;;
58340;SDS011;44149;43.060;0.104;2023-02-26T10:19:48;8.02;;;2.22;;
58340;SDS011;44149;43.060;0.104;2023-02-26T10:22:19;19.85;;;4.07;;
58340;SDS011;44149;43.060;0.104;2023-02-26T10:24:53;5.03;;;1.52;;
58340;SDS011;44149;43.060;0.104;2023-02-26T10:27:26;0.73;;;0.57;;
58340;SDS011;44149;43.060;0.104;2023-02-26T10:30:02;7.18;;;2.33;;
58340;SDS011;44149;43.060;0.104;2023-02-26T10:32:45;5.50;;;2.42;;
58340;SDS011;44149;43.060;0.104;2023-02-26T10:35:15;6.70;;;1.25;;
58340;SDS011;44149;43.060;0.104;2023-02-26T10:42:47;0.80;;;0.80;;
58340;SDS011;44149;43.060;0.104;2023-02-26T10:45:24;0.95;;;0.95;;
58340;SDS011;44149;43.060;0.104;2023-02-26T10:50:38;1.45;;;1.10;;
58340;SDS011;44149;43.060;0.104;2023-02-26T10:53:08;0.52;;;0.52;;
58340;SDS011;44149;43.060;0.104;2023-02-26T10:55:46;13.57;;;4.28;;
58340;SDS011;44149;43.060;0.104;2023-02-26T10:58:22;6.53;;;1.27;;
58340;SDS011;44149;43.060;0.104;2023-02-26T11:00:50;0.88;;;0.88;;
58340;SDS011;44149;43.060;0.104;2023-02-26T11:03:19;7.05;;;1.80;;
58340;SDS011;44149;43.060;0.104;2023-02-26T11:05:45;11.88;;;3.15;;
58340;SDS011;44149;43.060;0.104;2023-02-26T11:10:52;1.40;;;1.30;;
58340;SDS011;44149;43.060;0.104;2023-02-26T11:13:23;1.75;;;0.95;;
58340;SDS011;44149;43.060;0.104;2023-02-26T11:15:51;1.55;;;0.85;;
58340;SDS011;44149;43.060;0.104;2023-02-26T11:18:20;4.97;;;1.58;;
58340;SDS011;44149;43.060;0.104;2023-02-26T11:20:46;1.17;;;0.80;;
58340;SDS011;44149;43.060;0.104;2023-02-26T11:23:15;0.90;;;0.90;;
58340;SDS011;44149;43.060;0.104;2023-02-26T11:25:44;9.23;;;3.45;;
58340;SDS011;44149;43.060;0.104;2023-02-26T11:33:47;0.63;;;0.63;;
58340;SDS011;44149;43.060;0.104;2023-02-26T11:36:15;5.80;;;2.00;;
58340;SDS011;44149;43.060;0.104;2023-02-26T11:38:43;6.47;;;1.80;;
58340;SDS011;44149;43.060;0.104;2023-02-26T11:41:10;21.73;;;6.45;;
58340;SDS011;44149;43.060;0.104;2023-02-26T11:43:44;5.90;;;2.95;;
58340;SDS011;44149;43.060;0.104;2023-02-26T11:46:10;11.32;;;5.85;;
58340;SDS011;44149;43.060;0.104;2023-02-26T11:48:45;6.57;;;1.98;;
58340;SDS011;44149;43.060;0.104;2023-02-26T11:51:21;6.93;;;1.38;;
58340;SDS011;44149;43.060;0.104;2023-02-26T11:53:51;4.78;;;2.45;;
58340;SDS011;44149;43.060;0.104;2023-02-26T11:56:31;31.45;;;5.03;;
58340;SDS011;44149;43.060;0.104;2023-02-26T11:59:05;2.40;;;1.73;;
58340;SDS011;44149;43.060;0.104;2023-02-26T12:01:34;3.92;;;1.90;;
58340;SDS011;44149;43.060;0.104;2023-02-26T12:04:01;7.82;;;2.90;;
58340;SDS011;44149;43.060;0.104;2023-02-26T12:06:27;4.75;;;2.13;;
58340;SDS011;44149;43.060;0.104;2023-02-26T12:08:54;0.85;;;0.85;;
58340;SDS011;44149;43.060;0.104;2023-02-26T12:25:15;1.80;;;1.70;;
58340;SDS011;44149;43.060;0.104;2023-02-26T12:33:23;5.20;;;2.05;;
58340;SDS011;44149;43.060;0.104;2023-02-26T12:43:54;1.50;;;1.17;;
58340;SDS011;44149;43.060;0.104;2023-02-26T12:51:49;1.42;;;1.33;;
58340;SDS011;44149;43.060;0.104;2023-02-26T12:57:17;2.55;;;1.20;;
58340;SDS011;44149;43.060;0.104;2023-02-26T13:18:51;3.90;;;2.10;;
58340;SDS011;44149;43.060;0.104;2023-02-26T13:21:20;7.13;;;1.48;;
58340;SDS011;44149;43.060;0.104;2023-02-26T13:23:52;2.53;;;1.25;;
58340;SDS011;44149;43.060;0.104;2023-02-26T13:26:20;1.40;;;1.02;;
58340;SDS011;44149;43.060;0.104;2023-02-26T13:31:47;5.30;;;1.50;;
58340;SDS011;44149;43.060;0.104;2023-02-26T13:34:09;1.98;;;1.25;;
58340;SDS011;44149;43.060;0.104;2023-02-26T13:36:37;2.45;;;1.17;;
58340;SDS011;44149;43.060;0.104;2023-02-26T13:39:18;1.95;;;1.23;;
58340;SDS011;44149;43.060;0.104;2023-02-26T13:49:33;0.57;;;0.55;;
58340;SDS011;44149;43.060;0.104;2023-02-26T13:52:04;0.80;;;0.80;;
58340;SDS011;44149;43.060;0.104;2023-02-26T13:54:43;5.55;;;1.17;;
58340;SDS011;44149;43.060;0.104;2023-02-26T14:00:30;2.35;;;0.82;;
58340;SDS011;44149;43.060;0.104;2023-02-26T14:02:57;1.38;;;0.88;;
58340;SDS011;44149;43.060;0.104;2023-02-26T14:08:09;1.08;;;0.85;;
58340;SDS011;44149;43.060;0.104;2023-02-26T14:10:43;4.87;;;1.27;;
58340;SDS011;44149;43.060;0.104;2023-02-26T14:13:11;1.27;;;1.15;;
58340;SDS011;44149;43.060;0.104;2023-02-26T14:15:40;0.60;;;0.60;;
58340;SDS011;44149;43.060;0.104;2023-02-26T14:18:24;1.58;;;0.70;;
58340;SDS011;44149;43.060;0.104;2023-02-26T14:20:51;1.17;;;1.00;;
58340;SDS011;44149;43.060;0.104;2023-02-26T14:23:27;1.95;;;1.20;;
58340;SDS011;44149;43.060;0.104;2023-02-26T14:25:55;1.65;;;1.15;;
58340;SDS011;44149;43.060;0.104;2023-02-26T14:31:06;4.78;;;1.20;;
58340;SDS011;44149;43.060;0.104;2023-02-26T14:34:19;2.78;;;1.25;;
58340;SDS011;44149;43.060;0.104;2023-02-26T14:36:41;1.67;;;1.33;;
58340;SDS011;44149;43.060;0.104;2023-02-26T14:39:11;6.78;;;1.45;;
58340;SDS011;44149;43.060;0.104;2023-02-26T14:41:40;4.63;;;1.08;;
58340;SDS011;44149;43.060;0.104;2023-02-26T14:44:22;2.50;;;1.48;;
58340;SDS011;44149;43.060;0.104;2023-02-26T14:46:50;1.58;;;1.15;;
58340;SDS011;44149;43.060;0.104;2023-02-26T14:49:23;2.45;;;1.15;;
58340;SDS011;44149;43.060;0.104;2023-02-26T15:02:31;3.03;;;1.60;;
58340;SDS011;44149;43.060;0.104;2023-02-26T15:10:08;4.05;;;1.98;;
58340;SDS011;44149;43.060;0.104;2023-02-26T15:15:13;5.28;;;2.13;;
58340;SDS011;44149;43.060;0.104;2023-02-26T15:18:06;6.93;;;1.60;;
58340;SDS011;44149;43.060;0.104;2023-02-26T15:20:41;2.30;;;1.17;;
58340;SDS011;44149;43.060;0.104;2023-02-26T15:23:17;3.13;;;1.58;;
58340;SDS011;44149;43.060;0.104;2023-02-26T15:25:46;8.10;;;1.40;;
58340;SDS011;44149;43.060;0.104;2023-02-26T15:28:21;0.98;;;0.88;;
58340;SDS011;44149;43.060;0.104;2023-02-26T15:30:49;2.38;;;1.05;;
58340;SDS011;44149;43.060;0.104;2023-02-26T15:33:17;1.35;;;0.98;;
58340;SDS011;44149;43.060;0.104;2023-02-26T15:35:44;2.50;;;1.23;;
58340;SDS011;44149;43.060;0.104;2023-02-26T15:38:10;7.68;;;1.08;;
58340;SDS011;44149;43.060;0.104;2023-02-26T15:40:37;2.05;;;1.25;;
58340;SDS011;44149;43.060;0.104;2023-02-26T15:43:04;6.90;;;2.22;;
58340;SDS011;44149;43.060;0.104;2023-02-26T15:45:37;1.48;;;1.00;;
58340;SDS011;44149;43.060;0.104;2023-02-26T15:48:06;7.13;;;2.05;;
58340;SDS011;44149;43.060;0.104;2023-02-26T15:50:40;2.53;;;1.25;;
58340;SDS011;44149;43.060;0.104;2023-02-26T15:53:07;7.68;;;2.00;;
58340;SDS011;44149;43.060;0.104;2023-02-26T15:55:40;10.38;;;3.13;;
58340;SDS011;44149;43.060;0.104;2023-02-26T15:58:08;0.98;;;0.95;;
58340;SDS011;44149;43.060;0.104;2023-02-26T16:00:35;1.85;;;1.50;;
58340;SDS011;44149;43.060;0.104;2023-02-26T16:03:03;2.53;;;1.50;;
58340;SDS011;44149;43.060;0.104;2023-02-26T16:05:29;4.15;;;1.50;;
58340;SDS011;44149;43.060;0.104;2023-02-26T16:07:56;4.68;;;2.33;;
58340;SDS011;44149;43.060;0.104;2023-02-26T16:10:33;5.05;;;1.70;;
58340;SDS011;44149;43.060;0.104;2023-02-26T16:13:02;54.47;;;10.20;;
58340;SDS011;44149;43.060;0.104;2023-02-26T16:17:55;0.93;;;0.93;;
58340;SDS011;44149;43.060;0.104;2023-02-26T16:20:24;1.23;;;1.13;;
58340;SDS011;44149;43.060;0.104;2023-02-26T16:22:58;1.02;;;0.95;;
58340;SDS011;44149;43.060;0.104;2023-02-26T16:25:28;0.93;;;0.88;;
58340;SDS011;44149;43.060;0.104;2023-02-26T16:28:38;1.38;;;1.27;;
58340;SDS011;44149;43.060;0.104;2023-02-26T16:30:47;1.35;;;0.95;;
58340;SDS011;44149;43.060;0.104;2023-02-26T16:33:14;3.15;;;1.23;;
58340;SDS011;44149;43.060;0.104;2023-02-26T16:35:42;3.70;;;1.45;;
58340;SDS011;44149;43.060;0.104;2023-02-26T16:38:19;5.95;;;2.53;;
58340;SDS011;44149;43.060;0.104;2023-02-26T16:40:46;1.90;;;1.20;;
58340;SDS011;44149;43.060;0.104;2023-02-26T16:45:49;4.97;;;1.58;;
58340;SDS011;44149;43.060;0.104;2023-02-26T16:51:12;16.67;;;3.58;;
58340;SDS011;44149;43.060;0.104;2023-02-26T16:53:41;1.27;;;1.17;;
58340;SDS011;44149;43.060;0.104;2023-02-26T16:56:10;2.50;;;1.15;;
58340;SDS011;44149;43.060;0.104;2023-02-26T16:58:41;6.45;;;3.17;;
58340;SDS011;44149;43.060;0.104;2023-02-26T17:01:08;3.42;;;1.70;;
58340;SDS011;44149;43.060;0.104;2023-02-26T17:03:37;1.33;;;0.93;;
58340;SDS011;44149;43.060;0.104;2023-02-26T17:06:06;5.30;;;1.63;;
58340;SDS011;44149;43.060;0.104;2023-02-26T17:08:45;3.53;;;1.58;;
58340;SDS011;44149;43.060;0.104;2023-02-26T17:16:36;8.68;;;2.35;;
58340;SDS011;44149;43.060;0.104;2023-02-26T17:19:03;3.60;;;1.20;;
58340;SDS011;44149;43.060;0.104;2023-02-26T17:21:29;3.15;;;1.48;;
58340;SDS011;44149;43.060;0.104;2023-02-26T17:23:56;6.55;;;1.35;;
58340;SDS011;44149;43.060;0.104;2023-02-26T17:26:22;6.25;;;1.38;;
58340;SDS011;44149;43.060;0.104;2023-02-26T17:28:49;4.82;;;3.22;;
58340;SDS011;44149;43.060;0.104;2023-02-26T17:31:15;1.92;;;1.33;;
58340;SDS011;44149;43.060;0.104;2023-02-26T17:33:41;1.42;;;1.30;;
58340;SDS011;44149;43.060;0.104;2023-02-26T17:36:12;2.60;;;1.08;;
58340;SDS011;44149;43.060;0.104;2023-02-26T17:38:39;1.30;;;0.80;;
58340;SDS011;44149;43.060;0.104;2023-02-26T17:41:11;1.98;;;1.05;;
58340;SDS011;44149;43.060;0.104;2023-02-26T17:43:37;3.30;;;1.10;;
58340;SDS011;44149;43.060;0.104;2023-02-26T17:46:04;5.15;;;0.80;;
58340;SDS011;44149;43.060;0.104;2023-02-26T17:48:30;1.63;;;0.88;;
58340;SDS011;44149;43.060;0.104;2023-02-26T17:50:57;1.05;;;0.57;;
58340;SDS011;44149;43.060;0.104;2023-02-26T17:53:24;1.52;;;1.15;;